Stations météo

Publicité
Chillingham Barns, Grande-Bretagne (99196): Température de l'air & dewpoint: 13.10.2018 20:00:00 - 19.10.2018 20:00:00 (BST)Chillingham Barns, Grande-Bretagne (99196): Quantités de précipitations: 13.10.2018 20:00:00 - 19.10.2018 20:00:00 (BST)
Date & Time tt [°C] td [°C] rr [mm]
19.10.2018 20:00:00 10,1 8,0 0,0
19.10.2018 19:00:00 11,1 8,8 0,0
19.10.2018 18:00:00 11,7 9,0 0,0
19.10.2018 17:00:00 12,4 8,8 0,0
19.10.2018 16:00:00 13,2 9,1 0,0
19.10.2018 15:00:00 13,1 8,3 0,0
19.10.2018 14:00:00 12,6 7,8 0,0
19.10.2018 13:00:00 13,9 7,2 0,0
19.10.2018 12:00:00 11,5 6,4 0,0
19.10.2018 11:00:00 10,1 6,0 0,0
19.10.2018 10:00:00 9,2 5,6 0,0
19.10.2018 09:00:00 6,4 4,3 0,0
19.10.2018 08:00:00 5,3 2,7 0,0
19.10.2018 07:00:00 6,0 2,7 0,0
19.10.2018 06:00:00 5,2 2,7 0,0
19.10.2018 05:00:00 5,1 2,8 0,0
19.10.2018 04:00:00 3,7 1,8 0,0
19.10.2018 03:00:00 3,1 1,7 0,0
19.10.2018 02:00:00 2,3 1,1 0,0
19.10.2018 01:00:00 2,3 1,6 0,0
19.10.2018 00:00:00 2,7 2,1 0,0
18.10.2018 23:00:00 3,3 2,8 0,0
18.10.2018 22:00:00 3,2 2,7 0,0
18.10.2018 21:00:00 3,9 3,2 0,0
18.10.2018 20:00:00 5,4 4,2 0,0
18.10.2018 19:00:00 6,4 4,2 0,0
18.10.2018 18:00:00 8,9 5,2 0,0
18.10.2018 17:00:00 9,7 5,8 0,0
18.10.2018 16:00:00 11,2 3,1 0,0
18.10.2018 15:00:00 11,4 3,3 0,0
18.10.2018 14:00:00 11,6 3,9 0,0
18.10.2018 13:00:00 12,3 5,0 0,0
18.10.2018 12:00:00 8,9 6,4 0,0
18.10.2018 11:00:00 6,4 6,0 0,0
18.10.2018 10:00:00 3,0 2,8 0,0
18.10.2018 09:00:00 1,1 0,9 0,0
18.10.2018 08:00:00 0,1 -0,2 0,0
18.10.2018 07:00:00 0,0 -0,7 0,0
18.10.2018 06:00:00 2,2 1,8 0,0
18.10.2018 05:00:00 2,1 1,7 0,0
18.10.2018 04:00:00 2,2 1,3 0,0
18.10.2018 03:00:00 3,1 1,7 0,0
18.10.2018 02:00:00 4,5 3,0 0,0
18.10.2018 01:00:00 5,0 3,0 0,0
18.10.2018 00:00:00 4,8 2,6 0,0
17.10.2018 23:00:00 6,7 3,6 0,0
17.10.2018 22:00:00 6,8 3,8 0,0
17.10.2018 21:00:00 6,4 3,8 0,0
17.10.2018 20:00:00 7,3 4,6 0,0
17.10.2018 19:00:00 8,0 4,7 0,0
17.10.2018 18:00:00 10,1 5,5 0,0
17.10.2018 17:00:00 12,3 6,1 0,0
17.10.2018 16:00:00 12,9 6,7 0,0
17.10.2018 15:00:00 13,6 7,6 0,0
17.10.2018 14:00:00 14,2 8,1 0,0
17.10.2018 13:00:00 14,4 8,4 0,0
17.10.2018 12:00:00 12,7 7,6 0,0
17.10.2018 11:00:00 12,2 9,0 0,0
17.10.2018 10:00:00 10,9 8,8 0,0
17.10.2018 09:00:00 10,2 8,0 0,0
17.10.2018 08:00:00 10,5 7,9 0,0
17.10.2018 07:00:00 11,0 8,0 0,0
17.10.2018 06:00:00 10,9 7,9 0,0
17.10.2018 05:00:00 10,3 7,5 0,0
17.10.2018 04:00:00 10,0 7,6 0,0
17.10.2018 03:00:00 10,4 7,9 0,0
17.10.2018 02:00:00 11,1 8,7 0,0
17.10.2018 01:00:00 11,9 10,4 0,0
17.10.2018 00:00:00 12,1 10,6 0,0
16.10.2018 23:00:00 12,0 10,5 0,0
16.10.2018 22:00:00 12,0 10,3 0,0
16.10.2018 21:00:00 12,3 10,3 0,0
16.10.2018 20:00:00 12,2 10,1 0,0
16.10.2018 19:00:00 12,6 9,9 0,0
16.10.2018 18:00:00 12,7 9,3 0,0
16.10.2018 17:00:00 13,9 8,1 0,0
16.10.2018 16:00:00 14,8 9,3 0,0
16.10.2018 15:00:00 14,9 9,9 0,0
16.10.2018 14:00:00 14,7 10,9 0,0
16.10.2018 13:00:00 14,0 11,2 0,0
16.10.2018 12:00:00 12,5 10,6 0,0
16.10.2018 11:00:00 11,6 10,3 0,0
16.10.2018 10:00:00 10,5 9,4 0,0
16.10.2018 09:00:00 9,7 9,1 0,0
16.10.2018 08:00:00 9,4 9,0 0,0
16.10.2018 07:00:00 9,2 8,9 0,0
16.10.2018 06:00:00 9,0 8,6 0,2
16.10.2018 05:00:00 8,8 8,4 0,0
16.10.2018 04:00:00 8,4 7,9 0,0
16.10.2018 03:00:00 7,4 6,9 0,0
16.10.2018 02:00:00 7,6 7,2 0,0
16.10.2018 01:00:00 6,7 6,0 0,0
16.10.2018 00:00:00 7,1 6,3 0,0
15.10.2018 23:00:00 7,0 6,1 0,0
15.10.2018 22:00:00 6,9 6,0 0,0
15.10.2018 21:00:00 6,8 6,4 0,0
15.10.2018 20:00:00 7,1 6,7 0,0
15.10.2018 19:00:00 7,0 5,9 0,0
15.10.2018 18:00:00 9,3 5,8 0,0
15.10.2018 17:00:00 10,4 5,8 0,0
15.10.2018 16:00:00 12,0 4,7 0,0
15.10.2018 15:00:00 12,3 6,6 0,0
15.10.2018 14:00:00 9,4 7,0 0,0
15.10.2018 13:00:00 7,6 6,6 0,0
15.10.2018 12:00:00 6,4 6,1 0,0
15.10.2018 11:00:00 5,5 5,3 0,0
15.10.2018 10:00:00 3,1 2,9 0,0
15.10.2018 09:00:00 0,7 0,6 0,0
15.10.2018 08:00:00 0,2 0,1 0,0
15.10.2018 07:00:00 0,1 -0,1 0,0
15.10.2018 06:00:00 0,1 -0,1 0,0
15.10.2018 05:00:00 0,0 -0,2 0,0
15.10.2018 04:00:00 -0,1 -0,4 0,0
15.10.2018 03:00:00 0,8 0,6 0,0
15.10.2018 02:00:00 1,6 1,3 0,0
15.10.2018 01:00:00 1,5 1,2 0,0
15.10.2018 00:00:00 2,4 2,2 0,0
14.10.2018 23:00:00 3,0 2,7 0,0
14.10.2018 22:00:00 3,9 3,6 0,0
14.10.2018 21:00:00 4,2 3,7 0,0
14.10.2018 20:00:00 4,9 3,9 0,0
14.10.2018 19:00:00 6,4 4,8 0,0
14.10.2018 18:00:00 8,3 5,0 0,0
14.10.2018 17:00:00 9,9 5,2 0,0
14.10.2018 16:00:00 11,2 5,3 0,0
14.10.2018 15:00:00 9,6 7,2 0,0
14.10.2018 14:00:00 9,5 6,5 0,0
14.10.2018 13:00:00 9,3 6,0 0,0
14.10.2018 12:00:00 9,0 6,5 0,0
14.10.2018 11:00:00 9,1 5,8 0,0
14.10.2018 10:00:00 9,2 5,9 0,0
14.10.2018 09:00:00 9,4 5,4 0,0
14.10.2018 08:00:00 9,5 5,3 0,0
14.10.2018 07:00:00 9,6 6,0 0,0
14.10.2018 06:00:00 9,9 7,0 0,0
14.10.2018 05:00:00 9,8 6,8 0,0
14.10.2018 04:00:00 10,9 7,8 0,0
14.10.2018 03:00:00 12,0 9,2 0,0
14.10.2018 02:00:00 13,6 10,7 0,0
14.10.2018 01:00:00 15,0 11,2 0,0
14.10.2018 00:00:00 15,4 12,6 0,0
13.10.2018 23:00:00 15,9 13,4 0,0
13.10.2018 22:00:00 16,4 14,2 0,2
13.10.2018 21:00:00 16,6 14,2 0,2
13.10.2018 20:00:00 18,7 15,1 0,0

tt = Température de l'air
td = dewpoint
rr = Quantités de précipitations

stations d'obs. à proximité